Time;durP1;ratioP1;P1;durP2;ratioP2;P2;SDS_P1;SDS_P2;PMS_P1;PMS_P2;Temp;Humidity;BMP_temperature;BMP_pressure;BME280_temperature;BME280_humidity;BME280_pressure;Samples;Min_cycle;Max_cycle;Signal;HPM_P1;HPM_P2
2023/03/23 00:00:58;;;;;;;9.75;6.97;;;11.10;99.90;;;;;;5061901;28;20397;-54
2023/03/23 00:03:25;;;;;;;11.60;7.13;;;11.10;99.90;;;;;;5061923;28;20033;-50
2023/03/23 00:05:51;;;;;;;8.85;6.88;;;11.30;99.90;;;;;;5061887;28;20048;-51
2023/03/23 00:08:22;;;;;;;10.70;7.40;;;11.30;99.90;;;;;;5062837;28;20431;-52
2023/03/23 00:10:52;;;;;;;7.80;7.00;;;11.30;99.90;;;;;;5060314;28;20102;-54
2023/03/23 00:13:21;;;;;;;10.82;6.90;;;11.30;99.90;;;;;;5061118;28;20444;-52
2023/03/23 00:15:48;;;;;;;10.48;7.15;;;11.00;99.90;;;;;;5061000;28;20040;-51
2023/03/23 00:18:21;;;;;;;9.48;6.88;;;11.00;99.90;;;;;;5061668;28;20051;-52
2023/03/23 00:20:51;;;;;;;9.48;6.55;;;11.00;99.90;;;;;;5061632;28;20043;-52
2023/03/23 00:23:18;;;;;;;9.93;6.55;;;11.00;99.90;;;;;;5060638;28;20045;-52
2023/03/23 00:25:49;;;;;;;11.77;6.40;;;11.00;99.90;;;;;;5059460;28;20049;-50
2023/03/23 00:28:16;;;;;;;11.20;6.78;;;11.00;99.90;;;;;;5060831;28;20097;-50
2023/03/23 00:30:44;;;;;;;7.93;5.97;;;11.00;99.90;;;;;;5062183;28;20068;-51
2023/03/23 00:33:12;;;;;;;10.15;6.78;;;11.00;99.90;;;;;;5071727;28;20516;-51
2023/03/23 00:35:39;;;;;;;10.70;5.97;;;11.00;99.90;;;;;;5072236;28;20564;-54
2023/03/23 00:38:05;;;;;;;11.07;6.38;;;11.00;99.90;;;;;;5072103;28;20041;-50
2023/03/23 00:40:31;;;;;;;7.55;5.70;;;11.00;99.90;;;;;;5059085;28;20397;-54
2023/03/23 00:42:56;;;;;;;8.85;6.60;;;11.00;99.90;;;;;;5073108;28;20036;-53
2023/03/23 00:45:23;;;;;;;10.70;6.40;;;11.00;99.90;;;;;;5071900;28;20082;-51
2023/03/23 00:47:50;;;;;;;10.45;6.45;;;11.00;99.90;;;;;;5055025;28;20127;-51
2023/03/23 00:50:17;;;;;;;6.82;5.78;;;11.00;99.90;;;;;;5085192;28;20048;-50
2023/03/23 00:52:43;;;;;;;8.23;5.73;;;11.00;99.90;;;;;;5075886;28;20105;-50
2023/03/23 00:55:09;;;;;;;10.00;6.20;;;11.00;99.90;;;;;;5076374;28;20516;-53
2023/03/23 00:57:35;;;;;;;9.40;6.20;;;11.10;99.90;;;;;;5067102;28;20051;-54
2023/03/23 01:00:03;;;;;;;7.80;5.72;;;11.00;99.90;;;;;;5064838;28;20040;-54
2023/03/23 01:02:29;;;;;;;9.90;6.20;;;11.10;99.90;;;;;;5065655;28;20037;-55
2023/03/23 01:04:54;;;;;;;9.45;5.45;;;11.00;99.90;;;;;;5054127;28;20059;-52
2023/03/23 01:07:22;;;;;;;8.43;6.22;;;11.10;99.90;;;;;;5065098;28;20090;-50
2023/03/23 01:09:48;;;;;;;;;;;11.10;99.90;;;;;;5026743;28;20074;-51
2023/03/23 01:12:14;;;;;;;9.30;5.72;;;11.10;99.90;;;;;;5061073;28;19928;-50
2023/03/23 01:14:41;;;;;;;8.98;5.72;;;11.10;99.90;;;;;;5067848;28;20053;-50
2023/03/23 01:17:07;;;;;;;9.52;6.25;;;11.00;99.90;;;;;;5047141;28;20093;-50
2023/03/23 01:19:32;;;;;;;10.40;5.97;;;11.00;99.90;;;;;;5060725;28;20469;-55
2023/03/23 01:21:58;;;;;;;9.10;5.03;;;10.90;99.90;;;;;;5062120;28;20097;-50
2023/03/23 01:24:24;;;;;;;9.05;5.88;;;11.00;99.90;;;;;;5063134;28;20401;-51
2023/03/23 01:26:50;;;;;;;8.35;5.40;;;10.90;99.90;;;;;;5062343;28;20177;-51
2023/03/23 01:29:15;;;;;;;6.40;5.22;;;10.90;99.90;;;;;;5061587;28;20041;-52
2023/03/23 01:31:42;;;;;;;7.80;5.40;;;10.90;99.90;;;;;;5063952;28;20056;-54
2023/03/23 01:34:08;;;;;;;9.05;5.32;;;10.90;99.90;;;;;;5051543;28;20049;-50
2023/03/23 01:36:33;;;;;;;6.63;4.95;;;10.90;99.90;;;;;;5064479;28;21233;-52
2023/03/23 01:39:02;;;;;;;6.45;5.30;;;10.90;99.90;;;;;;5063966;28;20182;-50
2023/03/23 01:41:28;;;;;;;7.88;5.05;;;10.90;99.90;;;;;;5052016;28;20485;-51
2023/03/23 01:44:01;;;;;;;7.82;4.47;;;10.90;99.90;;;;;;5064293;28;20044;-50
2023/03/23 01:46:30;;;;;;;8.48;4.90;;;10.90;99.90;;;;;;5064490;28;20489;-53
2023/03/23 01:49:00;;;;;;;8.25;4.63;;;10.90;99.90;;;;;;5063901;28;20405;-52
2023/03/23 01:51:27;;;;;;;7.30;4.38;;;10.90;99.90;;;;;;5064768;28;20083;-50
2023/03/23 01:54:01;;;;;;;6.40;4.15;;;10.80;99.90;;;;;;5064443;28;20042;-51
2023/03/23 01:56:32;;;;;;;9.65;4.72;;;10.80;99.90;;;;;;5051057;28;20040;-52
2023/03/23 01:58:58;;;;;;;6.15;4.43;;;10.80;99.90;;;;;;5064719;28;20064;-50
2023/03/23 02:01:26;;;;;;;6.75;4.70;;;10.80;99.90;;;;;;5062894;28;20481;-51
2023/03/23 02:03:54;;;;;;;8.48;4.45;;;10.80;99.90;;;;;;5064118;28;20122;-50
2023/03/23 02:06:20;;;;;;;5.05;4.43;;;10.80;99.90;;;;;;5062879;28;20037;-55
2023/03/23 02:08:49;;;;;;;9.82;5.15;;;10.80;99.90;;;;;;5062479;28;20106;-53
2023/03/23 02:11:17;;;;;;;6.22;4.60;;;10.80;99.90;;;;;;5063351;28;20500;-52
2023/03/23 02:13:44;;;;;;;8.07;4.72;;;10.80;99.90;;;;;;5059717;28;20044;-51
2023/03/23 02:16:15;;;;;;;9.35;5.05;;;10.80;99.90;;;;;;5056943;28;20037;-53
2023/03/23 02:18:51;;;;;;;8.88;4.70;;;10.90;99.90;;;;;;5058445;28;21337;-53
2023/03/23 02:21:27;;;;;;;7.60;4.40;;;10.90;99.90;;;;;;5061774;28;20101;-51
2023/03/23 02:24:26;;;;;;;4.90;4.40;;;10.90;99.90;;;;;;5061357;28;20080;-52
2023/03/23 02:26:55;;;;;;;7.22;4.82;;;10.90;99.90;;;;;;5061357;28;20060;-51
2023/03/23 02:29:42;;;;;;;5.88;5.00;;;10.90;99.90;;;;;;5062714;28;20080;-51
2023/03/23 02:32:20;;;;;;;7.20;5.10;;;10.90;99.90;;;;;;5060975;28;20095;-52
2023/03/23 02:34:52;;;;;;;8.02;4.72;;;10.80;99.90;;;;;;5063229;28;20506;-54
2023/03/23 02:37:24;;;;;;;9.15;4.95;;;10.90;99.90;;;;;;5061558;28;20049;-54
2023/03/23 02:39:56;;;;;;;6.72;4.90;;;10.80;99.90;;;;;;5063686;28;20044;-56
2023/03/23 02:42:29;;;;;;;10.02;5.22;;;10.90;99.90;;;;;;5063106;28;20076;-52
2023/03/23 02:44:56;;;;;;;8.30;4.70;;;10.90;99.90;;;;;;5063807;28;20416;-52
2023/03/23 02:47:25;;;;;;;7.37;4.97;;;10.90;99.90;;;;;;5050226;28;20493;-51
2023/03/23 02:49:54;;;;;;;5.38;4.60;;;10.90;99.90;;;;;;5063919;28;20058;-51
2023/03/23 02:52:25;;;;;;;11.43;4.80;;;10.80;99.90;;;;;;5062743;28;20032;-53
2023/03/23 02:54:53;;;;;;;6.40;5.00;;;10.90;99.90;;;;;;5050233;28;20128;-55
2023/03/23 02:57:20;;;;;;;6.32;5.13;;;10.80;99.90;;;;;;5062329;28;20051;-52
2023/03/23 02:59:46;;;;;;;5.55;4.70;;;10.80;99.90;;;;;;5062333;28;20119;-54
2023/03/23 03:02:17;;;;;;;6.07;4.38;;;10.80;99.90;;;;;;5062781;28;20144;-52
2023/03/23 03:04:56;;;;;;;7.78;4.68;;;10.80;99.90;;;;;;5059120;28;20071;-52
2023/03/23 03:07:35;;;;;;;6.10;4.45;;;10.90;99.90;;;;;;5058767;28;20127;-53
2023/03/23 03:10:08;;;;;;;8.27;4.35;;;10.90;99.90;;;;;;5060664;28;20037;-54
2023/03/23 03:12:46;;;;;;;6.57;4.75;;;10.90;99.90;;;;;;5060207;28;20063;-53
2023/03/23 03:15:17;;;;;;;;;;;10.90;99.90;;;;;;5059550;28;20048;-55
2023/03/23 03:17:55;;;;;;;6.22;3.97;;;10.90;99.90;;;;;;5060212;28;19940;-51
2023/03/23 03:20:25;;;;;;;5.35;4.00;;;11.00;99.90;;;;;;5058361;28;20059;-51
2023/03/23 03:22:52;;;;;;;6.70;3.70;;;11.00;99.90;;;;;;5057170;28;20049;-51
2023/03/23 03:25:19;;;;;;;8.48;4.35;;;11.00;99.90;;;;;;5058889;28;20270;-52
2023/03/23 03:27:49;;;;;;;6.73;4.33;;;11.00;99.90;;;;;;5059309;28;20037;-53
2023/03/23 03:30:20;;;;;;;5.88;4.35;;;11.10;99.90;;;;;;5060994;28;20060;-51
2023/03/23 03:32:50;;;;;;;4.60;4.00;;;11.10;99.90;;;;;;5060716;28;20041;-53
2023/03/23 03:35:17;;;;;;;7.32;4.40;;;11.10;99.90;;;;;;5058543;28;20044;-53
2023/03/23 03:37:44;;;;;;;6.47;3.90;;;;;;;;;;5059389;28;20063;-52
2023/03/23 03:40:14;;;;;;;6.43;4.18;;;11.20;99.90;;;;;;5060123;28;20101;-53
2023/03/23 03:42:41;;;;;;;5.25;4.15;;;11.20;99.90;;;;;;5055292;28;20044;-52
2023/03/23 03:45:13;;;;;;;6.40;4.03;;;11.20;99.90;;;;;;5057895;28;20063;-53
2023/03/23 03:47:39;;;;;;;8.23;4.18;;;11.20;99.90;;;;;;5056809;28;20053;-53
2023/03/23 03:50:05;;;;;;;5.30;4.20;;;11.20;99.90;;;;;;5057850;28;20071;-53
2023/03/23 03:52:31;;;;;;;5.53;4.45;;;11.20;99.90;;;;;;5057322;28;20044;-52
2023/03/23 03:54:57;;;;;;;7.60;4.22;;;11.20;99.90;;;;;;5056217;28;20037;-52
2023/03/23 03:57:23;;;;;;;6.18;4.10;;;11.20;99.90;;;;;;5057437;28;20501;-54
2023/03/23 03:59:50;;;;;;;7.15;4.38;;;11.20;99.90;;;;;;5044536;28;20482;-53
2023/03/23 04:02:19;;;;;;;5.38;4.50;;;11.20;99.90;;;;;;5057670;28;20036;-54
2023/03/23 04:04:47;;;;;;;6.90;4.45;;;11.20;99.90;;;;;;5056407;28;20048;-52
2023/03/23 04:07:13;;;;;;;5.97;5.00;;;11.20;99.90;;;;;;5057065;28;20048;-54
2023/03/23 04:09:40;;;;;;;5.78;4.70;;;11.10;99.90;;;;;;5056563;28;20041;-54
2023/03/23 04:12:06;;;;;;;5.60;4.40;;;11.20;99.90;;;;;;5057244;28;20041;-53
2023/03/23 04:14:32;;;;;;;5.20;4.70;;;11.20;99.90;;;;;;5057061;28;20044;-56
2023/03/23 04:16:58;;;;;;;7.85;5.22;;;11.20;99.90;;;;;;5056835;28;20560;-52
2023/03/23 04:19:25;;;;;;;7.32;4.65;;;11.20;99.90;;;;;;5057266;28;20060;-52
2023/03/23 04:21:51;;;;;;;7.03;4.60;;;11.20;99.90;;;;;;5056377;28;20402;-54
2023/03/23 04:24:21;;;;;;;6.70;4.22;;;11.20;99.90;;;;;;5063564;28;20052;-54
2023/03/23 04:26:47;;;;;;;4.93;4.43;;;11.20;99.90;;;;;;5062963;28;20151;-54
2023/03/23 04:29:13;;;;;;;8.27;4.70;;;11.20;99.90;;;;;;5065240;28;20052;-54
2023/03/23 04:31:40;;;;;;;7.57;4.55;;;11.20;99.90;;;;;;5064855;28;20044;-51
2023/03/23 04:34:06;;;;;;;8.68;4.63;;;11.20;99.90;;;;;;5063833;28;20217;-53
2023/03/23 04:36:33;;;;;;;6.75;3.92;;;11.20;99.90;;;;;;5063069;28;20350;-49
2023/03/23 04:39:00;;;;;;;6.03;4.18;;;11.20;99.90;;;;;;5061633;28;20474;-53
2023/03/23 04:41:26;;;;;;;6.28;4.63;;;11.20;99.90;;;;;;5063422;28;20086;-53
2023/03/23 04:43:53;;;;;;;8.80;4.65;;;11.20;99.90;;;;;;5060774;28;20076;-52
2023/03/23 04:46:21;;;;;;;7.32;4.32;;;11.20;99.90;;;;;;5062918;28;20040;-51
2023/03/23 04:48:46;;;;;;;6.28;4.38;;;11.20;99.90;;;;;;5063697;28;20485;-53
2023/03/23 04:51:12;;;;;;;6.78;4.00;;;11.20;99.90;;;;;;5065474;28;20052;-51
2023/03/23 04:53:38;;;;;;;6.40;3.90;;;11.20;99.90;;;;;;5065685;28;20040;-51
2023/03/23 04:56:04;;;;;;;6.82;4.50;;;11.20;99.90;;;;;;5066459;28;20045;-52
2023/03/23 04:58:33;;;;;;;5.72;4.40;;;11.20;99.90;;;;;;5066449;28;20040;-50
2023/03/23 05:01:00;;;;;;;6.35;4.10;;;11.10;99.90;;;;;;5065919;28;20630;-53
2023/03/23 05:03:26;;;;;;;6.82;4.20;;;11.20;99.90;;;;;;5067195;28;20037;-50
2023/03/23 05:05:53;;;;;;;10.45;4.95;;;11.20;99.90;;;;;;5065860;28;20481;-55
2023/03/23 05:08:24;;;;;;;6.28;4.25;;;11.20;99.90;;;;;;5064036;28;20041;-51
2023/03/23 05:10:55;;;;;;;6.75;4.47;;;11.30;99.90;;;;;;5065085;28;20121;-54
2023/03/23 05:13:22;;;;;;;6.22;4.50;;;11.30;99.90;;;;;;5068167;28;20040;-55
2023/03/23 05:15:47;;;;;;;7.93;4.43;;;11.30;99.90;;;;;;5065595;28;20425;-52
2023/03/23 05:18:14;;;;;;;7.55;4.63;;;11.30;99.90;;;;;;5054903;28;20041;-51
2023/03/23 05:20:41;;;;;;;6.88;4.07;;;11.40;99.90;;;;;;5066179;28;20120;-52
2023/03/23 05:23:08;;;;;;;8.35;4.90;;;11.40;99.90;;;;;;5066794;28;20532;-53
2023/03/23 05:25:36;;;;;;;8.23;4.35;;;11.40;99.90;;;;;;5065465;28;20406;-54
2023/03/23 05:28:02;;;;;;;4.50;2.08;;;11.30;99.90;;;;;;5065292;28;20438;-51
2023/03/23 05:30:29;;;;;;;4.53;1.30;;;11.20;99.90;;;;;;5066898;28;20052;-54
2023/03/23 05:32:55;;;;;;;7.70;1.38;;;10.90;99.90;;;;;;5063619;28;20048;-54
2023/03/23 05:35:21;;;;;;;6.18;1.90;;;10.60;99.90;;;;;;5063307;28;20040;-52
2023/03/23 05:37:46;;;;;;;6.55;2.10;;;10.40;99.90;;;;;;5061416;28;20045;-53
2023/03/23 05:40:13;;;;;;;7.13;2.05;;;10.20;99.90;;;;;;5062923;28;20160;-55
2023/03/23 05:42:40;;;;;;;7.38;2.10;;;10.00;99.90;;;;;;5060289;28;20135;-55
2023/03/23 05:45:08;;;;;;;6.68;2.33;;;10.00;99.90;;;;;;5060337;28;20048;-54
2023/03/23 05:47:34;;;;;;;5.97;1.98;;;9.90;99.90;;;;;;5060808;28;20044;-53
2023/03/23 05:50:00;;;;;;;6.70;1.83;;;9.90;99.90;;;;;;5058466;28;20501;-55
2023/03/23 05:52:26;;;;;;;6.63;1.77;;;9.80;99.90;;;;;;5044093;28;20163;-54
2023/03/23 05:54:52;;;;;;;5.40;1.42;;;9.80;99.90;;;;;;5046206;28;20056;-56
2023/03/23 05:57:21;;;;;;;4.63;1.48;;;9.80;99.90;;;;;;5066654;28;20029;-52
2023/03/23 05:59:47;;;;;;;6.32;1.65;;;9.80;99.90;;;;;;5063792;28;20078;-51
2023/03/23 06:02:14;;;;;;;8.20;1.92;;;9.80;99.90;;;;;;5064354;28;20055;-52
2023/03/23 06:04:40;;;;;;;6.65;1.88;;;9.80;99.90;;;;;;5063516;28;20489;-48
2023/03/23 06:07:07;;;;;;;6.22;2.30;;;9.80;99.90;;;;;;5050750;28;20080;-49
2023/03/23 06:09:32;;;;;;;4.10;1.88;;;9.80;99.90;;;;;;5064485;28;20048;-49
2023/03/23 06:11:58;;;;;;;5.50;1.77;;;9.80;99.90;;;;;;5064707;28;20064;-48
2023/03/23 06:14:24;;;;;;;8.23;2.13;;;9.80;99.90;;;;;;5063728;28;20089;-52
2023/03/23 06:16:50;;;;;;;6.07;2.15;;;9.90;99.90;;;;;;5062911;28;20378;-50
2023/03/23 06:19:16;;;;;;;8.95;2.53;;;9.90;99.90;;;;;;5062788;28;20474;-50
2023/03/23 06:21:42;;;;;;;10.52;3.03;;;9.90;99.90;;;;;;5062532;28;20095;-50
2023/03/23 06:24:08;;;;;;;11.70;3.20;;;10.00;99.90;;;;;;5051116;28;20185;-48
2023/03/23 06:26:36;;;;;;;11.65;3.28;;;10.00;99.90;;;;;;5061127;28;20159;-53
2023/03/23 06:29:10;;;;;;;14.15;3.50;;;10.00;99.90;;;;;;5031175;28;20367;-53
2023/03/23 06:31:44;;;;;;;18.08;3.95;;;10.10;99.90;;;;;;5066046;28;20051;-56
2023/03/23 06:34:11;;;;;;;11.15;3.20;;;10.10;99.90;;;;;;5063955;28;20556;-55
2023/03/23 06:36:38;;;;;;;11.77;3.40;;;10.20;99.90;;;;;;5062091;28;20062;-56
2023/03/23 06:39:04;;;;;;;15.52;4.40;;;10.20;99.90;;;;;;5061851;28;20114;-56
2023/03/23 06:41:31;;;;;;;11.52;3.60;;;10.20;99.90;;;;;;5061355;28;20037;-53
2023/03/23 06:43:58;;;;;;;16.77;4.25;;;10.40;99.90;;;;;;5060223;28;20414;-56
2023/03/23 06:46:24;;;;;;;14.43;3.60;;;10.50;99.90;;;;;;5059482;28;20714;-53
2023/03/23 06:48:50;;;;;;;13.02;3.80;;;10.30;99.90;;;;;;5060726;28;20510;-55
2023/03/23 06:51:17;;;;;;;8.88;3.13;;;10.40;99.90;;;;;;5060953;28;20041;-53
2023/03/23 06:53:43;;;;;;;10.18;3.35;;;10.40;99.90;;;;;;5058246;28;20045;-55
2023/03/23 06:56:08;;;;;;;14.23;3.88;;;10.40;99.90;;;;;;5056045;28;20044;-56
2023/03/23 06:58:35;;;;;;;10.82;3.13;;;;;;;;;;5042119;28;20037;-54
2023/03/23 07:01:01;;;;;;;12.40;3.72;;;10.60;99.90;;;;;;5060587;28;20052;-57
2023/03/23 07:03:27;;;;;;;16.45;3.88;;;10.60;99.90;;;;;;5059768;28;20386;-55
2023/03/23 07:05:54;;;;;;;13.35;3.40;;;10.70;99.90;;;;;;5059932;28;20382;-54
2023/03/23 07:08:20;;;;;;;12.45;3.08;;;10.80;99.90;;;;;;5060113;28;20056;-56
2023/03/23 07:10:47;;;;;;;9.73;2.90;;;10.90;99.90;;;;;;5042090;28;20040;-56
2023/03/23 07:13:12;;;;;;;12.00;2.72;;;11.00;99.90;;;;;;5059803;28;20419;-54
2023/03/23 07:15:39;;;;;;;9.10;2.70;;;10.90;99.90;;;;;;5040517;28;20147;-55
2023/03/23 07:18:05;;;;;;;15.32;2.88;;;10.90;99.90;;;;;;5073383;22;20419;-53
2023/03/23 07:20:31;;;;;;;12.32;3.20;;;10.90;99.90;;;;;;5035669;28;20091;-53
2023/03/23 07:22:56;;;;;;;10.25;2.80;;;11.00;99.90;;;;;;5021482;28;20124;-54
2023/03/23 07:25:22;;;;;;;11.45;2.75;;;10.90;99.90;;;;;;5041050;28;20105;-55
2023/03/23 07:27:48;;;;;;;8.35;2.38;;;10.90;99.90;;;;;;5041779;28;20058;-52
2023/03/23 07:30:14;;;;;;;8.18;2.60;;;11.00;99.90;;;;;;5023632;28;20072;-54
2023/03/23 07:32:41;;;;;;;10.90;2.50;;;11.00;99.90;;;;;;5040653;28;20056;-56
2023/03/23 07:35:07;;;;;;;7.95;2.42;;;11.00;99.90;;;;;;5040644;28;20050;-52
2023/03/23 07:37:34;;;;;;;9.82;2.50;;;;;;;;;;5035446;28;20449;-57
2023/03/23 07:39:59;;;;;;;10.55;3.00;;;11.00;99.90;;;;;;5038080;28;20136;-54
2023/03/23 07:42:25;;;;;;;10.10;2.53;;;11.10;99.90;;;;;;5036501;28;20670;-56
2023/03/23 07:44:50;;;;;;;14.10;3.78;;;11.00;99.90;;;;;;5036262;28;20072;-54
2023/03/23 07:47:17;;;;;;;11.00;3.15;;;11.10;99.90;;;;;;5038048;28;20550;-54
2023/03/23 07:49:43;;;;;;;10.63;3.20;;;11.00;99.90;;;;;;5037698;28;20049;-55
2023/03/23 07:52:10;;;;;;;10.05;3.40;;;11.10;99.90;;;;;;5037150;28;20052;-54
2023/03/23 07:54:36;;;;;;;9.68;2.70;;;11.10;99.90;;;;;;5037318;28;20524;-54
2023/03/23 07:57:02;;;;;;;12.57;3.50;;;11.20;99.90;;;;;;5037367;28;20136;-56
2023/03/23 07:59:28;;;;;;;13.18;3.13;;;11.20;99.90;;;;;;5042722;28;20044;-55
2023/03/23 08:01:53;;;;;;;11.15;2.97;;;11.30;99.90;;;;;;5044163;28;20047;-54
2023/03/23 08:04:19;;;;;;;9.38;2.88;;;11.40;99.90;;;;;;5043313;28;20056;-55
2023/03/23 08:06:45;;;;;;;12.13;3.30;;;11.40;99.90;;;;;;5042323;28;20232;-54
2023/03/23 08:09:11;;;;;;;12.13;3.58;;;11.40;99.90;;;;;;5029547;28;20072;-52
2023/03/23 08:11:38;;;;;;;7.72;2.72;;;11.50;99.90;;;;;;5045672;28;20127;-53
2023/03/23 08:14:05;;;;;;;16.77;2.92;;;11.60;99.90;;;;;;5044788;28;20132;-56
2023/03/23 08:16:31;;;;;;;9.50;3.37;;;11.70;99.90;;;;;;5043002;28;20470;-55
2023/03/23 08:18:57;;;;;;;9.88;3.13;;;11.70;99.90;;;;;;5036329;28;20131;-55
2023/03/23 08:21:23;;;;;;;8.10;3.00;;;11.80;99.90;;;;;;5021875;28;20188;-51
2023/03/23 08:23:49;;;;;;;10.25;3.42;;;11.90;99.90;;;;;;5021484;28;20128;-54
2023/03/23 08:26:17;;;;;;;11.10;3.13;;;12.00;99.90;;;;;;5018781;28;20071;-53
2023/03/23 08:28:43;;;;;;;;;;;12.00;99.90;;;;;;5019756;28;20053;-52
2023/03/23 08:31:14;;;;;;;9.52;3.35;;;12.00;99.90;;;;;;5024316;28;19972;-53
2023/03/23 08:33:41;;;;;;;11.93;3.50;;;12.00;99.90;;;;;;5016733;28;20049;-56
2023/03/23 08:36:08;;;;;;;10.48;3.33;;;12.10;99.90;;;;;;5022257;28;20044;-55
2023/03/23 08:38:34;;;;;;;10.02;3.80;;;12.10;99.90;;;;;;5024637;28;20033;-52
2023/03/23 08:41:02;;;;;;;12.05;3.97;;;12.10;99.90;;;;;;5030438;28;20098;-55
2023/03/23 08:43:28;;;;;;;15.88;4.18;;;12.10;99.90;;;;;;5030318;28;20103;-56
2023/03/23 08:45:54;;;;;;;9.90;3.80;;;12.10;99.90;;;;;;5033484;28;20466;-56
2023/03/23 08:48:22;;;;;;;17.42;4.03;;;12.20;99.90;;;;;;5023240;28;20521;-56
2023/03/23 08:50:48;;;;;;;14.68;4.55;;;12.20;99.90;;;;;;5025968;28;20049;-51
2023/03/23 08:53:14;;;;;;;17.70;4.05;;;12.20;99.90;;;;;;5024206;28;20048;-55
2023/03/23 08:55:39;;;;;;;16.75;4.47;;;12.20;99.90;;;;;;5024209;28;20049;-51
2023/03/23 08:58:06;;;;;;;15.25;4.18;;;12.20;99.90;;;;;;5025821;28;20038;-51
2023/03/23 09:00:32;;;;;;;15.55;4.65;;;12.20;99.90;;;;;;5036941;28;20099;-53
2023/03/23 09:02:58;;;;;;;14.35;3.80;;;12.10;99.90;;;;;;5031181;28;20041;-55
2023/03/23 09:05:26;;;;;;;17.30;4.32;;;12.10;99.90;;;;;;5039003;28;20041;-51
2023/03/23 09:07:54;;;;;;;11.57;3.72;;;12.20;99.90;;;;;;5051294;28;20037;-53
2023/03/23 09:10:21;;;;;;;;;;;12.10;99.90;;;;;;5041475;28;20122;-54
2023/03/23 09:12:47;;;;;;;11.27;3.97;;;12.20;99.90;;;;;;5024312;28;19925;-53
2023/03/23 09:15:16;;;;;;;17.25;3.45;;;12.10;99.90;;;;;;5041833;28;20505;-55
2023/03/23 09:17:47;;;;;;;12.95;3.33;;;12.10;99.90;;;;;;5037777;28;20128;-54
2023/03/23 09:20:18;;;;;;;10.55;3.10;;;11.90;99.90;;;;;;5047074;28;20122;-52
2023/03/23 09:22:46;;;;;;;10.10;3.15;;;11.90;99.90;;;;;;5049212;28;20545;-56
2023/03/23 09:25:15;;;;;;;9.88;3.45;;;11.90;99.90;;;;;;5052508;28;20549;-51
2023/03/23 09:27:42;;;;;;;11.32;3.00;;;11.90;99.90;;;;;;5061053;28;20040;-53
2023/03/23 09:30:14;;;;;;;18.63;3.37;;;12.10;99.90;;;;;;5052690;28;20176;-55
2023/03/23 09:32:43;;;;;;;9.20;3.13;;;12.10;99.90;;;;;;5047078;28;20053;-55
2023/03/23 09:35:11;;;;;;;11.43;3.25;;;12.20;99.90;;;;;;5046576;28;20146;-54
2023/03/23 09:37:38;;;;;;;15.77;2.70;;;12.10;99.90;;;;;;5051901;28;20549;-53
2023/03/23 09:40:09;;;;;;;11.00;2.77;;;12.10;99.90;;;;;;5056151;28;20490;-53
2023/03/23 09:43:13;;;;;;;13.90;3.22;;;12.30;99.90;;;;;;5053427;28;20052;-54
2023/03/23 09:46:09;;;;;;;7.18;2.72;;;12.60;99.90;;;;;;4959092;28;20072;-54
2023/03/23 09:48:47;;;;;;;8.00;2.90;;;12.90;99.90;;;;;;4979063;28;20138;-54
2023/03/23 09:51:24;;;;;;;8.27;2.90;;;13.00;99.90;;;;;;4980462;28;20050;-52
2023/03/23 09:53:55;;;;;;;8.20;2.73;;;13.00;99.90;;;;;;4967145;28;20094;-55
2023/03/23 09:56:22;;;;;;;10.40;2.75;;;13.00;99.90;;;;;;4984859;28;20367;-53
2023/03/23 09:58:57;;;;;;;9.07;2.60;;;13.00;99.90;;;;;;4978434;28;20096;-55
2023/03/23 10:01:32;;;;;;;11.60;3.47;;;13.10;99.90;;;;;;4983084;28;20387;-52
2023/03/23 10:04:12;;;;;;;11.57;2.70;;;13.20;99.90;;;;;;4984240;28;20133;-52
2023/03/23 10:06:38;;;;;;;12.77;2.75;;;13.50;99.90;;;;;;4983577;28;20043;-53
2023/03/23 10:09:05;;;;;;;7.75;3.20;;;13.60;99.90;;;;;;4979051;28;20057;-54
2023/03/23 10:11:42;;;;;;;11.40;3.25;;;13.70;99.90;;;;;;4967963;28;20159;-54
2023/03/23 10:14:41;;;;;;;6.87;2.63;;;14.00;99.90;;;;;;4980701;28;20132;-52
2023/03/23 10:17:14;;;;;;;7.78;2.63;;;14.40;99.90;;;;;;4980322;28;20120;-51
2023/03/23 10:20:12;;;;;;;9.00;2.40;;;14.50;99.90;;;;;;4984164;28;20202;-55
2023/03/23 10:22:45;;;;;;;6.80;2.53;;;14.30;99.90;;;;;;4993294;28;20104;-55
2023/03/23 10:25:12;;;;;;;4.82;2.35;;;14.20;99.90;;;;;;5004928;28;20041;-51
2023/03/23 10:28:18;;;;;;;6.05;2.30;;;14.10;99.90;;;;;;5011160;28;20061;-53
2023/03/23 10:30:50;;;;;;;6.72;2.33;;;14.10;99.90;;;;;;4944665;28;20121;-52
2023/03/23 10:33:26;;;;;;;10.40;2.20;;;14.10;99.90;;;;;;4943771;28;20051;-51
2023/03/23 10:36:04;;;;;;;7.05;2.40;;;14.10;99.90;;;;;;4942882;28;20074;-54
2023/03/23 10:38:35;;;;;;;8.95;2.50;;;14.40;99.90;;;;;;4942426;28;20051;-52
2023/03/23 10:41:11;;;;;;;6.60;2.38;;;14.50;99.90;;;;;;4940767;28;20479;-55
2023/03/23 10:43:37;;;;;;;7.45;2.25;;;14.40;99.90;;;;;;4945066;28;20404;-52
2023/03/23 10:46:30;;;;;;;8.18;2.20;;;14.50;99.90;;;;;;4944932;28;20053;-54
2023/03/23 10:48:58;;;;;;;6.55;2.35;;;14.50;99.90;;;;;;4947753;28;20059;-51
2023/03/23 10:51:31;;;;;;;7.97;2.60;;;14.40;99.90;;;;;;4946271;28;20047;-53
2023/03/23 10:53:59;;;;;;;7.60;2.03;;;14.50;99.90;;;;;;4946515;28;20051;-53
2023/03/23 10:56:27;;;;;;;9.27;2.83;;;14.60;99.90;;;;;;4949957;28;20039;-51
2023/03/23 10:58:53;;;;;;;;;;;14.60;99.90;;;;;;4947075;28;20055;-52
2023/03/23 11:01:28;;;;;;;9.65;2.55;;;14.60;99.90;;;;;;4995766;28;19952;-56
2023/03/23 11:03:54;;;;;;;10.68;2.53;;;14.40;99.90;;;;;;5065146;28;20052;-53
2023/03/23 11:06:23;;;;;;;9.18;2.72;;;14.20;99.90;;;;;;5029786;28;20194;-55
2023/03/23 11:09:00;;;;;;;7.13;2.55;;;14.00;99.90;;;;;;5051539;28;20036;-54
2023/03/23 11:11:28;;;;;;;9.18;2.70;;;13.80;99.90;;;;;;5041288;28;20509;-52
2023/03/23 11:14:12;;;;;;;5.50;2.42;;;13.70;99.90;;;;;;5053390;28;20179;-53
2023/03/23 11:16:44;;;;;;;7.72;2.58;;;13.50;99.90;;;;;;5033649;28;20469;-54
2023/03/23 11:19:15;;;;;;;9.88;2.60;;;13.30;99.90;;;;;;5036977;28;20525;-55
2023/03/23 11:21:47;;;;;;;7.30;2.25;;;13.20;99.90;;;;;;5057602;28;20041;-53
2023/03/23 11:24:13;;;;;;;8.05;2.70;;;13.10;99.90;;;;;;5062678;28;20047;-51
2023/03/23 11:26:39;;;;;;;8.20;2.50;;;13.10;99.90;;;;;;5057248;28;20135;-52
2023/03/23 11:29:15;;;;;;;10.85;2.58;;;13.00;99.90;;;;;;5056647;28;20040;-53
2023/03/23 11:31:48;;;;;;;8.80;3.13;;;13.00;99.90;;;;;;5055934;28;20041;-53
2023/03/23 11:34:21;;;;;;;10.07;3.05;;;13.10;99.90;;;;;;5062801;28;20039;-51
2023/03/23 11:37:05;;;;;;;7.45;2.35;;;13.30;99.90;;;;;;5045909;28;20147;-53
2023/03/23 11:39:34;;;;;;;10.35;2.63;;;13.80;99.90;;;;;;5043394;28;20106;-54
2023/03/23 11:42:18;;;;;;;11.50;2.78;;;13.80;99.90;;;;;;5055216;28;20097;-52
2023/03/23 11:44:47;;;;;;;9.65;2.47;;;13.80;99.90;;;;;;5058402;28;20045;-51
2023/03/23 11:47:28;;;;;;;12.52;2.90;;;13.70;99.90;;;;;;5045555;22;20159;-53
2023/03/23 11:50:17;;;;;;;10.82;2.97;;;13.60;99.90;;;;;;5006601;28;20058;-53
2023/03/23 11:53:21;;;;;;;11.10;2.67;;;13.60;99.90;;;;;;5009825;28;20061;-55
2023/03/23 11:55:50;;;;;;;10.23;2.65;;;14.20;99.90;;;;;;5011632;28;20054;-51
2023/03/23 11:58:18;;;;;;;10.68;2.72;;;14.80;99.90;;;;;;5008174;28;20064;-51
2023/03/23 12:01:04;;;;;;;;;;;15.20;99.90;;;;;;5007581;28;20050;-52
2023/03/23 12:03:57;;;;;;;10.18;2.85;;;15.00;99.90;;;;;;5007607;28;19931;-50
2023/03/23 12:06:41;;;;;;;7.97;2.50;;;15.30;99.90;;;;;;5010845;28;20049;-54
2023/03/23 12:09:25;;;;;;;11.55;2.58;;;15.60;99.90;;;;;;5007118;28;20085;-51
2023/03/23 12:12:10;;;;;;;8.10;2.47;;;15.80;99.90;;;;;;5005183;28;20038;-52
2023/03/23 12:15:17;;;;;;;7.38;2.60;;;15.90;99.90;;;;;;5025744;28;20052;-54
2023/03/23 12:18:25;;;;;;;9.77;2.70;;;15.80;99.90;;;;;;5025236;28;20041;-52
2023/03/23 12:21:13;;;;;;;12.43;2.35;;;15.50;99.90;;;;;;4955260;28;20075;-52
2023/03/23 12:23:41;;;;;;;11.57;2.72;;;15.20;99.90;;;;;;4959999;28;20051;-54
2023/03/23 12:26:09;;;;;;;9.02;2.40;;;15.00;99.90;;;;;;4958337;28;20073;-55
2023/03/23 12:28:57;;;;;;;8.93;2.80;;;14.80;99.90;;;;;;4970387;28;20393;-54
2023/03/23 12:31:30;;;;;;;9.63;2.40;;;15.10;99.90;;;;;;4965075;28;20061;-52
2023/03/23 12:34:11;;;;;;;9.68;2.80;;;15.60;99.90;;;;;;4951892;28;20187;-53
2023/03/23 12:36:43;;;;;;;8.88;2.13;;;15.60;99.90;;;;;;4965015;28;20086;-52
2023/03/23 12:39:33;;;;;;;5.65;1.77;;;15.90;99.90;;;;;;4965542;28;21086;-53
2023/03/23 12:42:07;;;;;;;8.02;2.20;;;15.90;99.90;;;;;;4965862;28;20042;-51
2023/03/23 12:44:43;;;;;;;10.60;2.53;;;15.90;99.90;;;;;;4966228;28;20059;-54
2023/03/23 12:47:15;;;;;;;10.27;2.33;;;16.00;99.90;;;;;;4973310;28;20141;-54
2023/03/23 12:49:46;;;;;;;7.03;2.03;;;16.20;99.90;;;;;;4965551;28;20035;-51
2023/03/23 12:52:30;;;;;;;10.48;2.72;;;16.30;99.90;;;;;;5016408;28;20053;-53
2023/03/23 12:55:12;;;;;;;7.05;1.98;;;16.50;99.90;;;;;;5036293;28;20060;-54
2023/03/23 12:57:52;;;;;;;7.30;1.90;;;16.30;99.90;;;;;;5034627;28;20041;-51
2023/03/23 13:00:42;;;;;;;10.55;1.98;;;16.10;99.90;;;;;;5036037;28;20113;-49